ADVERTISEMENT

iOS app on App Store Android app on Google Play

2018 \ Aloha Run Long Beach - September 16, 2018

Notes Pages Download Filter By
  [1] 2 3 4 5 6




Keyword Exact  
Division

Bib First Name Last Name City State Total Time Division Division Place Overall
3839 Tyler Long Los Angeles CA 00:36:29 40-44 M 1 1
4729 SHINSUKE ADACHI Redondo Beach CA 00:36:37 40-44 M 2 2
4782 Bryan Camarillo Harbor City CA 00:37:12 25-29 M 1 3
4629 Alan Squyres Lancaster CA 00:40:13 35-39 M 1 4
4624 Luis Mora South Gate CA 00:42:24 35-39 M 2 5
4273 Arkilles Joshua Jr. Compton CA 00:43:24 15-19 M 1 6
4262 Reed Goossens Long Beach CA 00:43:35 30-34 M 1 7
4138 Matt Manley Huntington Beach CA 00:44:00 40-44 M 3 8
4634 Wilson Vaca Temple City CA 00:44:05 50-54 M 1 9
4739 Rosa Sanchez-Ervin -- 00:44:12 40-44 F 1 10
4458 Kenzie Macpherson Redlands CA 00:44:19 55-59 M 1 11
4088 Richard Plummer Oceanside CA 00:44:44 40-44 M 4 12
4456 Glauco Pires -- 00:45:49 25-29 M 2 13
4724 Mirza E. Gallardo Placentia CA 00:46:00 50-54 F 1 14
3849 Ashley McLeish Los Angeles CA 00:46:48 30-34 F 1 15
3282 patrick delaney Norwalk CA 00:46:51 50-54 M 2 16
4269 Brandon Lutz Marina Del Rey CA 00:47:42 35-39 M 3 17
4144 KWANG CHONG Fullerton CA 00:47:46 40-44 M 5 18
4660 Francisco Pantoja Sylmar CA 00:47:53 55-59 M 2 19
4335 Anthony Clayburg Grover Beach CA 00:48:07 45-49 M 1 20
4343 Catherine Barnett Long Beach CA 00:48:08 30-34 F 2 21
4603 Carmen Vargas De Lapeyra Redondo Beach CA 00:48:26 50-54 F 2 22
4136 Sam Viray Chula Vista CA 00:48:34 15-19 M 2 23
4264 Kaitlin Fuelling Los Angeles CA 00:48:38 25-29 F 1 24
4121 Daizo Matsumoto Azusa CA 00:49:33 45-49 M 2 25
3861 Esteban De La Torre Norwalk CA 00:50:34 40-44 M 6 26
4093 Shaun Vasquez Porterville CA 00:50:45 15-19 M 3 27
3862 Brien Dodd Orange CA 00:51:00 60-64 M 1 28
4286 Diego Amezcua Hesperia CA 00:51:07 25-29 M 3 29
4332 Kenneth Ripperton Simi Valley CA 00:51:34 50-54 M 3 30
3994 Jeff Little Costa Mesa CA 00:51:42 30-34 M 2 31
3999 Sheryl Imperio Paramount CA 00:51:47 30-34 F 3 32
4171 Anthony Pacheco Anaheim CA 00:51:48 25-29 M 4 33
3848 Lawrence Lau Van Nuys CA 00:51:51 35-39 M 4 34
4723 Conrad Garner Long Beach CA 00:52:06 35-39 M 5 35
3878 Karl Pape Apensen NI 00:52:20 50-54 M 4 36
3498 Andy Felter Cypress CA 00:52:30 40-44 M 7 37
3857 Sandra Del Cid Lakewood CA 00:52:46 35-39 F 1 38
3833 Reggie Santos Long Beach CA 00:52:48 55-59 M 3 39
4459 Andy Ervin Fontana CA 00:52:56 15-19 M 4 40
4761 AMY CHAMBERS Long Beach CA 00:52:57 35-39 F 2 41
3276 DON OTJEN Carson CA 00:53:04 50-54 M 5 42
3385 Robin Su Alhambra CA 00:53:08 25-29 F 2 43
4655 Anne Kinney Mission Viejo CA 00:53:16 45-49 F 1 44
3984 Marisela Hernandez Torrance CA 00:53:21 40-44 F 2 45
4467 Dennis Narciso Glendale CA 00:53:26 35-39 M 6 46
4073 Larissa Benigno Winchester CA 00:53:29 45-49 F 2 47
4621 Richard Mclure Torrance CA 00:53:29 50-54 M 6 48
4628 Steven Carney Long Beach CA 00:53:34 30-34 M 3 49
4139 Erick Peraza Gardena CA 00:53:35 30-34 M 4 50
4745 John Farrace Los Angeles CA 00:53:37 30-34 M 5 52
4265 Cherrena Pruitt Bell Gardens CA 00:53:37 40-44 F 3 51
4272 Laura Saldarriaga Los Angeles CA 00:53:37 35-39 F 3 53
4266 Stacey Frantela II Long Beach CA 00:53:41 40-44 M 8 54
4142 Kristine Danao Chino CA 00:53:49 35-39 F 4 56
4000 Leng Chuor Paramount CA 00:53:49 30-34 M 6 55
4274 Richard Spaulding -- 00:53:50 30-34 M 7 58
4645 Jim Giordano Anaheim CA 00:53:50 50-54 M 7 57
4710 Kevin Nemandoust Long Beach CA 00:53:53 25-29 M 5 59
4618 Thomas Martin San Juan Capo CA 00:53:54 60-64 M 2 60
3871 Clint Tan -- 00:53:57 15-19 M 5 61
4773 Jaime Escamilla, Jr. South Gate CA 00:54:03 35-39 M 7 62
3398 Troy Hansgen Upland CA 00:54:16 50-54 M 8 63
3870 Alex Morales Diamond Bar CA 00:54:44 45-49 M 3 64
3852 Jayden Choi Los Angeles CA 00:54:47 25-29 M 6 65
3872 Maria Alvarez Paramount CA 00:54:54 35-39 F 5 66
4715 Byron Strope Upland CA 00:55:00 55-59 M 4 67
4256 Mike DeKoker Huntington Beach CA 00:55:02 40-44 M 9 68
3486 Tammi Zelm Placentia CA 00:55:06 50-54 F 3 70
3484 Jazz Hoxsie Placentia CA 00:55:06 35-39 F 6 69
3985 Jo Ann Valdez Long Beach CA 00:55:12 50-54 F 4 72
4772 Ron Villanueva North Hollywood CA 00:55:12 40-44 M 10 71
4671 Reiley Logan Yucaipa CA 00:55:17 15-19 F 1 74
3254 JIWON KIM Buena Park CA 00:55:17 35-39 M 8 73
4670 Brielle Bennie Beaumont CA 00:55:21 15-19 F 2 75
3394 Sandy Rodriguez Fontana CA 00:55:24 45-49 F 3 76
4375 Franchezska Zamora Pasadena CA 00:55:25 45-49 F 4 77
4757 Salvador Rodriguez Whittier CA 00:55:27 35-39 M 9 78
4141 Dan Aitch London CM 00:55:36 50-54 M 9 79
4669 KYLEA KRUSE Calimesa CA 00:55:39 15-19 F 3 80
4276 Logan Dolph Santa Monica CA 00:55:42 30-34 M 8 81
3832 STEVEN DE LA TORRE Norwalk CA 00:55:56 15-19 M 6 82
3838 Jennifer Kawahira Los Angeles CA 00:56:04 40-44 F 4 83
3492 Joseph Dypiangco Chino Hills CA 00:56:07 50-54 M 10 84
4470 Malcolm Lovelace Reseda CA 00:56:15 10-14 M 1 86
4687 Bre Ritter Huntington Beach CA 00:56:15 25-29 F 3 85
4722 Jose Cerna Bakersfield CA 00:56:16 30-34 M 9 87
4779 Lukas Holzer Klagenfurt 2 00:56:21 30-34 M 10 88
4748 Stacey Kasper Long Beach CA 00:56:28 25-29 F 4 89
3989 Joy Shoemaker Montrose CA 00:56:28 35-39 F 7 90
3876 Douglas Vera Los Angeles CA 00:56:29 25-29 M 7 91
3284 Karla Gonzalez Riverside CA 00:56:29 40-44 F 5 92
3273 Divina Perez Eastvale CA 00:56:31 45-49 F 5 93
3982 Tomomi Kitazume Rancho Palos Verdes CA 00:56:32 45-49 F 6 94
3977 Chrissy Nguyen Garden Grove CA 00:56:38 30-34 F 4 95
4078 David Quigg Pasadena CA 00:56:52 45-49 M 4 96
4605 Ricardo Rodriguez Chino CA 00:56:53 35-39 M 10 97
4617 Lauren Allison Redondo Beach CA 00:56:59 30-34 F 5 98
4331 Divad Aguilera South Gate CA 00:57:04 40-44 F 6 99
3268 Karen Kamimae San Pedro CA 00:57:07 60-64 F 1 100
Notes Pages Download Filter By
  [1] 2 3 4 5 6 7 8 9 10 11 12 13




Keyword Exact  
Division

Bib First Name Last Name Age City State Total Time Pace Gun Division Division Place Division Total Sex Place Gender Total Overall Total Runners
1345 Bryan Camarillo 29 Harbor City CA 00:18:24 00:05:56 00:18:24 25-29 M 1 15 1 354 1 1234
1029 Jesse Montes 40 West Covina CA 00:18:48 00:06:04 00:18:54 40-44 M 1 48 2 354 2 1234
1101 Alan Squyres 37 Lancaster CA 00:19:07 00:06:10 00:19:07 35-39 M 1 39 3 354 3 1234
1068 Nicole Kuan 18 Los Angeles CA 00:19:16 00:06:13 00:19:16 15-19 F 1 30 1 879 4 1234
1123 Faheem Chunara 19 Culver City CA 00:19:52 00:06:25 00:19:54 15-19 M 1 8 4 354 5 1234
995 Christopher Johnson 46 Seal Beach CA 00:20:24 00:06:35 00:20:24 45-49 M 1 43 5 354 6 1234
2465 Luis Ambriz 54 Downey CA 00:20:42 00:06:41 00:20:42 50-54 M 1 35 6 354 7 1234
2469 Jose Leos 30 Baldwin Park CA 00:20:42 00:06:41 00:20:56 30-34 M 1 30 7 354 8 1234
1285 Roberto Ferrito 45 Pasadena CA 00:21:00 00:06:47 00:21:00 45-49 M 2 43 8 354 9 1234
2471 Peter Martinez 48 Orange CA 00:21:12 00:06:51 00:21:12 45-49 M 3 43 9 354 10 1234
2462 Thomas Steinmetz 42 Torrance CA 00:21:38 00:06:59 00:21:43 40-44 M 2 48 10 354 11 1234
2313 Benjamin Roth Desko 38 Costa Mesa CA 00:21:50 00:07:03 00:21:58 35-39 M 2 39 11 354 12 1234
1399 Majella Carrera 16 Pico Rivera CA 00:22:01 00:07:06 00:22:10 15-19 F 2 30 2 879 13 1234
2716 Von Omo 30 La Mesa CA 00:22:02 00:07:07 00:22:12 30-34 M 2 30 12 354 14 1234
2401 Rosalinda Alcala 49 Anaheim CA 00:22:04 00:07:07 00:22:04 45-49 F 1 116 3 879 15 1234
497 Patrick Muk 15 Lakewood CA 00:22:14 00:07:11 00:22:22 15-19 M 2 8 13 354 16 1234
1898 Gary Pavlick 60 Manhattan Beach CA 00:22:14 00:07:11 00:22:28 60-64 M 1 11 14 354 17 1234
1102 Nick Reynoso 20 Long Beach CA 00:22:23 00:07:13 00:22:39 20-24 M 1 6 15 354 18 1234
2153 BRYAN RAMIREZ 9 Inglewood CA 00:22:43 00:07:20 00:23:35 1-9 M 1 38 16 354 19 1234
2770 Howard Colby 55 Long Beach CA 00:22:47 00:07:21 00:22:52 55-59 M 1 33 17 354 20 1234
1852 Dave Pancham 32 Sherman Oaks CA 00:22:48 00:07:22 00:22:55 30-34 M 3 30 18 354 21 1234
287 Nancy Garcia 45 Buena Park CA 00:23:14 00:07:30 00:23:17 45-49 F 2 116 4 879 22 1234
2375 Walter Kowalewski 17 Los Alamitos CA 00:23:16 00:07:31 00:23:24 15-19 M 3 8 19 354 23 1234
2504 Merissa Allen 28 Van Nuys CA 00:23:17 00:07:31 00:41:47 25-29 F 1 31 5 879 24 1234
994 Michael Padrick 54 Lompoc CA 00:23:26 00:07:34 00:23:35 50-54 M 2 35 20 354 25 1234
1999 Jesse Randle 34 CA 00:23:27 00:07:34 00:23:34 30-34 M 4 30 21 354 26 1234
257 Cody Schreiner 9 -- 00:23:36 00:07:37 00:27:59 1-9 M 2 38 22 354 27 1234
258 David Schreiner 36 -- 00:23:38 00:07:38 00:27:59 35-39 M 3 39 23 354 28 1234
2316 Jill Desko 31 Costa Mesa CA 00:23:39 00:07:38 00:23:46 30-34 F 1 84 6 879 29 1234
1358 EJ Masuda 42 Los Angeles CA 00:23:47 00:07:41 00:24:08 40-44 F 1 130 7 879 30 1234
2320 Christian Giron 19 Long Beach CA 00:23:50 00:07:42 00:24:11 15-19 M 4 8 24 354 31 1234
1064 Ramsey Nasser 32 Los Angeles CA 00:23:57 00:07:44 00:27:49 30-34 M 5 30 26 354 33 1234
2159 Michael Levor Arcana 26 Los Angeles CA 00:23:57 00:07:44 00:24:05 25-29 M 2 15 25 354 32 1234
1381 Nico Cacarnakis 14 Pasadena CA 00:24:04 00:07:46 00:24:58 10-14 M 1 29 27 354 34 1234
992 Jeff Wightman 57 La Mirada CA 00:24:11 00:07:48 00:24:14 55-59 M 2 33 28 354 35 1234
1961 FELIPE Diaz 37 Downey CA 00:24:15 00:07:50 00:24:20 35-39 M 4 39 29 354 37 1234
2400 Jennifer Brutocao 39 Huntington Beach CA 00:24:15 00:07:50 00:24:17 35-39 F 1 123 8 879 36 1234
1829 Diego Zamora 57 Long Beach CA 00:24:19 00:07:51 00:24:23 55-59 M 3 33 30 354 38 1234
1996 Andrew Vasquez 39 Anaheim CA 00:24:22 00:07:52 00:24:31 35-39 M 5 39 31 354 39 1234
297 Lee Ann Leung 34 Irvine CA 00:24:23 00:07:52 00:24:32 30-34 F 2 84 9 879 40 1234
1266 Aldin Enriquez 26 West Hollywood CA 00:24:39 00:07:58 00:28:54 25-29 M 3 15 32 354 41 1234
2367 Justin Deyle 46 Huntington Beach CA 00:24:40 00:07:58 00:28:34 45-49 M 4 43 33 354 42 1234
1842 Krizia Kolakowski 28 Bellflower CA 00:24:44 00:07:59 00:24:44 25-29 F 2 31 10 879 43 1234
1956 Dennis De Hoop 43 Cerritos CA 00:24:44 00:07:59 00:24:50 40-44 M 3 48 34 354 44 1234
1884 Danilo Albano 46 Glendora CA 00:25:06 00:08:06 00:25:07 45-49 M 5 43 35 354 45 1234
232 MARCO VARGAS 52 -- 00:25:07 00:08:07 00:25:14 50-54 M 3 35 36 354 47 1234
2662 Stacy McCartney 39 Fountain Valley CA 00:25:07 00:08:06 00:25:34 35-39 F 2 123 11 879 46 1234
1993 daniel alexander 27 CA 00:25:09 00:08:07 00:25:18 Overall 48 1 0 1 48 1234
1295 Mark Weller 46 Hesperia CA 00:25:14 00:08:09 00:25:27 45-49 M 6 43 37 354 49 1234
1184 Giovanni Manzo 12 Harbor City CA 00:25:16 00:08:09 00:25:21 10-14 M 2 29 39 354 51 1234
2552 Todd Tabon 47 Cerritos CA 00:25:16 00:08:09 00:25:23 45-49 M 7 43 38 354 50 1234
2291 Masis Karimian 40 Richmond Hill ON 00:25:19 00:08:10 00:25:22 40-44 M 4 48 40 354 52 1234
1372 Clay Neiswender 34 Long Beach CA 00:25:26 00:08:13 00:25:48 30-34 M 6 30 41 354 53 1234
2670 Andreas Ottesen Hammari 28 Kjeller 2 00:25:44 00:08:18 00:29:54 25-29 M 4 15 42 354 54 1234
2463 Elizabeth Diaz 47 Downey CA 00:25:46 00:08:19 00:25:50 45-49 F 3 116 12 879 55 1234
1894 Louis Martinez 39 South Gate CA 00:25:49 00:08:20 00:30:11 35-39 M 6 39 43 354 56 1234
2539 Brien Dodd 62 Orange CA 00:25:54 00:08:22 00:40:49 60-64 M 2 11 44 354 57 1234
1219 Andrew Calzada 23 -- 00:26:00 00:08:24 00:26:21 20-24 M 2 6 45 354 58 1234
1349 Ralph Quesada 58 Riverside CA 00:26:00 00:08:24 00:26:00 55-59 M 4 33 45 354 58 1234
2151 Daniel Rodgers 41 Inglewood CA 00:26:00 00:08:24 00:30:21 40-44 M 5 48 47 354 60 1234
1249 Marja Rosette 32 Sherman Oaks CA 00:26:14 00:08:28 00:27:16 30-34 F 3 84 13 879 61 1234
2402 David Autenrieth 58 Sierra Madre CA 00:26:17 00:08:29 00:41:15 55-59 M 5 33 48 354 62 1234
1871 Demian Scott Vaughs 49 Redondo Beach CA 00:26:18 00:08:29 00:26:27 45-49 M 8 43 49 354 63 1234
2314 Julie Smithwick 31 Artesia CA 00:26:29 00:08:33 00:26:37 30-34 F 4 84 14 879 64 1234
1352 Ameelia Ghareeb 40 Long Beach CA 00:26:35 00:08:35 00:45:11 40-44 F 2 130 15 879 65 1234
2403 Ana Martinez 19 -- 00:26:35 00:08:35 00:26:41 15-19 F 3 30 16 879 66 1234
1347 Blanca Ramirez 16 La Puente CA 00:26:38 00:08:36 00:26:41 15-19 F 4 30 17 879 67 1234
2786 Rosy Mart?nez 31 Irvine CA 00:26:39 00:08:36 00:27:25 30-34 F 5 84 18 879 68 1234
1039 Jordan Bringas 13 Riverside CA 00:26:43 00:08:37 00:27:11 10-14 M 3 29 50 354 69 1234
1967 Francis Zamora 42 Cerritos CA 00:26:55 00:08:41 00:26:59 40-44 M 6 48 51 354 70 1234
2018 Robert Wissusik 55 Thousand Oaks CA 00:27:01 00:08:43 00:27:10 55-59 M 6 33 52 354 71 1234
2653 Fabian Espinoza 33 Downey CA 00:27:02 00:08:43 00:31:24 30-34 M 7 30 53 354 72 1234
1801 Jonathan M. Doma 26 Cypress CA 00:27:05 00:08:44 00:31:01 25-29 M 5 15 54 354 73 1234
1596 Nathen Castillo 9 Harbor City CA 00:27:07 00:08:45 00:27:08 1-9 M 3 38 55 354 75 1234
1035 Tara McClure 17 Rancho Cucamonga CA 00:27:07 00:08:45 00:27:27 15-19 F 5 30 19 879 74 1234
1385 Philip Kushiner 53 Redondo Beach CA 00:27:08 00:08:46 00:27:19 50-54 M 4 35 56 354 77 1234
1075 Gabby Miranda 17 Los Angeles CA 00:27:08 00:08:45 00:27:08 15-19 F 6 30 20 879 76 1234
1045 Heather Hill 47 Redondo Beach CA 00:27:09 00:08:46 00:27:19 45-49 F 4 116 21 879 78 1234
2116 Gerson Espindola 49 West Hollywood CA 00:27:12 00:08:47 00:27:14 45-49 M 9 43 57 354 79 1234
1230 Lauren Schulte 32 Venice CA 00:27:12 00:08:47 00:45:41 30-34 F 6 84 22 879 80 1234
2729 Robert Villagran 63 Rowland Heights CA 00:27:15 00:08:48 00:27:34 60-64 M 3 11 58 354 81 1234
2659 Don Brown 67 Dana Point CA 00:27:21 00:08:50 00:27:37 65-69 M 1 10 59 354 82 1234
1062 Tarek Wehbe 37 Laguna Niguel CA 00:27:29 00:08:52 00:31:21 35-39 M 7 39 60 354 83 1234
1178 Mickey Burg 35 Simi Valley CA 00:27:30 00:08:53 00:27:41 35-39 F 3 123 23 879 84 1234
1267 Sean Ruiz 52 West Hollywood CA 00:27:40 00:08:56 00:31:55 50-54 M 5 35 61 354 85 1234
2484 Joven Cala 52 Fontana CA 00:27:41 00:08:56 00:28:25 50-54 M 6 35 62 354 86 1234
2470 Kelley Martinez 43 Orange CA 00:27:49 00:08:59 00:27:56 40-44 F 3 130 24 879 87 1234
1591 Jayme Milne 37 Long Beach CA 00:27:51 00:08:59 00:32:32 35-39 F 4 123 25 879 88 1234
2157 Robert Hatfield 57 Santa Monica CA 00:27:54 00:09:00 00:27:54 55-59 M 7 33 63 354 89 1234
2491 Alicia Ramos 45 Arcadia CA 00:28:06 00:09:04 00:31:58 45-49 F 5 116 26 879 90 1234
2154 SUZANNE LOZANO 30 Inglewood CA 00:28:08 00:09:05 00:29:00 30-34 F 7 84 27 879 91 1234
2665 Mark Kayano 30 Garden Grove CA 00:28:08 00:09:05 00:32:13 30-34 M 8 30 64 354 92 1234
1155 Katie Shakespeare 15 Yucaipa CA 00:28:17 00:09:08 00:28:17 15-19 F 7 30 28 879 93 1234
1887 Alexis Lopez 34 Northridge CA 00:28:17 00:09:08 00:28:56 30-34 F 8 84 29 879 94 1234
1157 Gabriel Martinez 26 Yorba Linda CA 00:28:21 00:09:09 00:32:28 25-29 M 6 15 65 354 95 1234
1907 Eric Martincavage 47 Seal Beach CA 00:28:22 00:09:09 00:32:29 45-49 M 10 43 66 354 96 1234
2311 Eden De Lacruz 12 Chino Hills CA 00:28:24 00:09:10 00:29:07 10-14 F 1 44 30 879 97 1234
2715 Jennifer Yamashiro 27 Torrance CA 00:28:24 00:09:10 00:28:34 25-29 F 3 31 31 879 98 1234
2642 Robyn Robbins 59 Torrance CA 00:28:25 00:09:10 00:32:57 55-59 F 1 76 32 879 99 1234
1832 Jasmine Limosnero 30 Long Beach CA 00:28:29 00:09:12 00:32:39 30-34 F 9 84 33 879 100 1234